sensor_id;sensor_type;location;lat;lon;timestamp;P1;durP1;ratioP1;P2;durP2;ratioP2
59786;SDS011;45672;51.612;5.536;2022-08-07T00:00:25;4.80;;;3.65;;
59786;SDS011;45672;51.612;5.536;2022-08-07T00:02:52;6.97;;;3.72;;
59786;SDS011;45672;51.612;5.536;2022-08-07T00:05:20;4.20;;;3.70;;
59786;SDS011;45672;51.612;5.536;2022-08-07T00:07:45;7.35;;;3.80;;
59786;SDS011;45672;51.612;5.536;2022-08-07T00:10:11;3.78;;;3.45;;
59786;SDS011;45672;51.612;5.536;2022-08-07T00:12:36;7.57;;;3.92;;
59786;SDS011;45672;51.612;5.536;2022-08-07T00:15:01;4.15;;;3.83;;
59786;SDS011;45672;51.612;5.536;2022-08-07T00:17:27;6.32;;;3.97;;
59786;SDS011;45672;51.612;5.536;2022-08-07T00:19:52;4.07;;;3.78;;
59786;SDS011;45672;51.612;5.536;2022-08-07T00:22:18;8.55;;;3.83;;
59786;SDS011;45672;51.612;5.536;2022-08-07T00:24:43;7.88;;;4.30;;
59786;SDS011;45672;51.612;5.536;2022-08-07T00:27:08;4.60;;;4.20;;
59786;SDS011;45672;51.612;5.536;2022-08-07T00:29:34;4.50;;;4.10;;
59786;SDS011;45672;51.612;5.536;2022-08-07T00:31:59;5.13;;;4.53;;
59786;SDS011;45672;51.612;5.536;2022-08-07T00:34:25;5.10;;;4.63;;
59786;SDS011;45672;51.612;5.536;2022-08-07T00:36:51;5.05;;;4.35;;
59786;SDS011;45672;51.612;5.536;2022-08-07T00:39:16;8.00;;;4.47;;
59786;SDS011;45672;51.612;5.536;2022-08-07T00:41:47;8.90;;;4.55;;
59786;SDS011;45672;51.612;5.536;2022-08-07T00:44:17;6.13;;;4.10;;
59786;SDS011;45672;51.612;5.536;2022-08-07T00:46:42;8.90;;;4.05;;
59786;SDS011;45672;51.612;5.536;2022-08-07T00:49:07;4.97;;;4.05;;
59786;SDS011;45672;51.612;5.536;2022-08-07T00:51:34;4.45;;;4.07;;
59786;SDS011;45672;51.612;5.536;2022-08-07T00:53:59;8.52;;;4.20;;
59786;SDS011;45672;51.612;5.536;2022-08-07T00:56:25;4.75;;;4.38;;
59786;SDS011;45672;51.612;5.536;2022-08-07T00:58:53;5.45;;;4.15;;
59786;SDS011;45672;51.612;5.536;2022-08-07T01:01:18;5.00;;;4.50;;
59786;SDS011;45672;51.612;5.536;2022-08-07T01:03:44;7.40;;;4.55;;
59786;SDS011;45672;51.612;5.536;2022-08-07T01:06:10;6.40;;;4.50;;
59786;SDS011;45672;51.612;5.536;2022-08-07T01:08:35;5.03;;;4.45;;
59786;SDS011;45672;51.612;5.536;2022-08-07T01:11:01;5.20;;;4.43;;
59786;SDS011;45672;51.612;5.536;2022-08-07T01:13:27;4.80;;;4.32;;
59786;SDS011;45672;51.612;5.536;2022-08-07T01:15:52;5.65;;;4.28;;
59786;SDS011;45672;51.612;5.536;2022-08-07T01:18:20;4.60;;;4.22;;
59786;SDS011;45672;51.612;5.536;2022-08-07T01:20:52;5.97;;;4.43;;
59786;SDS011;45672;51.612;5.536;2022-08-07T01:23:19;5.22;;;4.72;;
59786;SDS011;45672;51.612;5.536;2022-08-07T01:25:45;5.00;;;4.60;;
59786;SDS011;45672;51.612;5.536;2022-08-07T01:28:10;8.52;;;4.90;;
59786;SDS011;45672;51.612;5.536;2022-08-07T01:30:36;5.38;;;4.88;;
59786;SDS011;45672;51.612;5.536;2022-08-07T01:33:03;6.70;;;4.88;;
59786;SDS011;45672;51.612;5.536;2022-08-07T01:35:28;7.80;;;4.95;;
59786;SDS011;45672;51.612;5.536;2022-08-07T01:37:53;6.45;;;4.70;;
59786;SDS011;45672;51.612;5.536;2022-08-07T01:40:20;8.10;;;5.10;;
59786;SDS011;45672;51.612;5.536;2022-08-07T01:42:46;7.18;;;4.68;;
59786;SDS011;45672;51.612;5.536;2022-08-07T01:45:12;7.65;;;4.50;;
59786;SDS011;45672;51.612;5.536;2022-08-07T01:47:37;6.07;;;4.95;;
59786;SDS011;45672;51.612;5.536;2022-08-07T01:50:04;7.20;;;5.07;;
59786;SDS011;45672;51.612;5.536;2022-08-07T01:52:30;5.28;;;4.82;;
59786;SDS011;45672;51.612;5.536;2022-08-07T01:54:58;5.82;;;5.30;;
59786;SDS011;45672;51.612;5.536;2022-08-07T01:57:27;5.63;;;5.13;;
59786;SDS011;45672;51.612;5.536;2022-08-07T02:02:52;6.25;;;5.15;;
59786;SDS011;45672;51.612;5.536;2022-08-07T02:05:24;5.97;;;5.45;;
59786;SDS011;45672;51.612;5.536;2022-08-07T02:08:07;5.88;;;5.47;;
59786;SDS011;45672;51.612;5.536;2022-08-07T02:10:35;7.88;;;5.18;;
59786;SDS011;45672;51.612;5.536;2022-08-07T02:13:03;7.18;;;5.20;;
59786;SDS011;45672;51.612;5.536;2022-08-07T02:15:29;7.20;;;5.25;;
59786;SDS011;45672;51.612;5.536;2022-08-07T02:17:56;18.27;;;6.30;;
59786;SDS011;45672;51.612;5.536;2022-08-07T02:20:23;6.60;;;5.53;;
59786;SDS011;45672;51.612;5.536;2022-08-07T02:22:49;6.97;;;5.93;;
59786;SDS011;45672;51.612;5.536;2022-08-07T02:25:19;7.53;;;5.45;;
59786;SDS011;45672;51.612;5.536;2022-08-07T02:27:47;10.70;;;5.80;;
59786;SDS011;45672;51.612;5.536;2022-08-07T02:30:14;6.18;;;5.57;;
59786;SDS011;45672;51.612;5.536;2022-08-07T02:32:39;8.52;;;6.00;;
59786;SDS011;45672;51.612;5.536;2022-08-07T02:35:06;7.68;;;6.10;;
59786;SDS011;45672;51.612;5.536;2022-08-07T02:37:33;8.90;;;6.45;;
59786;SDS011;45672;51.612;5.536;2022-08-07T02:40:01;9.68;;;5.95;;
59786;SDS011;45672;51.612;5.536;2022-08-07T02:42:29;9.48;;;6.30;;
59786;SDS011;45672;51.612;5.536;2022-08-07T02:44:56;7.72;;;6.65;;
59786;SDS011;45672;51.612;5.536;2022-08-07T02:47:23;9.60;;;6.50;;
59786;SDS011;45672;51.612;5.536;2022-08-07T02:49:49;7.75;;;6.65;;
59786;SDS011;45672;51.612;5.536;2022-08-07T02:52:16;7.13;;;6.45;;
59786;SDS011;45672;51.612;5.536;2022-08-07T02:54:45;10.18;;;6.63;;
59786;SDS011;45672;51.612;5.536;2022-08-07T02:57:13;7.05;;;6.35;;
59786;SDS011;45672;51.612;5.536;2022-08-07T02:59:42;12.77;;;6.97;;
59786;SDS011;45672;51.612;5.536;2022-08-07T03:02:13;7.28;;;6.53;;
59786;SDS011;45672;51.612;5.536;2022-08-07T03:04:39;10.43;;;6.72;;
59786;SDS011;45672;51.612;5.536;2022-08-07T03:07:06;8.73;;;7.30;;
59786;SDS011;45672;51.612;5.536;2022-08-07T03:09:32;8.15;;;6.95;;
59786;SDS011;45672;51.612;5.536;2022-08-07T03:11:58;9.18;;;6.90;;
59786;SDS011;45672;51.612;5.536;2022-08-07T03:14:24;13.75;;;7.03;;
59786;SDS011;45672;51.612;5.536;2022-08-07T03:16:51;9.70;;;7.05;;
59786;SDS011;45672;51.612;5.536;2022-08-07T03:19:16;10.52;;;6.95;;
59786;SDS011;45672;51.612;5.536;2022-08-07T03:21:42;10.35;;;7.05;;
59786;SDS011;45672;51.612;5.536;2022-08-07T03:24:07;11.63;;;7.20;;
59786;SDS011;45672;51.612;5.536;2022-08-07T03:26:33;9.15;;;6.95;;
59786;SDS011;45672;51.612;5.536;2022-08-07T03:29:00;8.23;;;6.70;;
59786;SDS011;45672;51.612;5.536;2022-08-07T03:31:27;8.45;;;6.93;;
59786;SDS011;45672;51.612;5.536;2022-08-07T03:33:55;9.57;;;7.28;;
59786;SDS011;45672;51.612;5.536;2022-08-07T03:36:23;7.75;;;6.93;;
59786;SDS011;45672;51.612;5.536;2022-08-07T03:38:51;10.35;;;7.07;;
59786;SDS011;45672;51.612;5.536;2022-08-07T03:41:19;7.95;;;6.80;;
59786;SDS011;45672;51.612;5.536;2022-08-07T03:43:44;7.97;;;7.18;;
59786;SDS011;45672;51.612;5.536;2022-08-07T03:46:10;10.27;;;7.05;;
59786;SDS011;45672;51.612;5.536;2022-08-07T03:48:37;13.52;;;7.07;;
59786;SDS011;45672;51.612;5.536;2022-08-07T03:51:03;13.25;;;7.70;;
59786;SDS011;45672;51.612;5.536;2022-08-07T03:53:29;8.13;;;7.32;;
59786;SDS011;45672;51.612;5.536;2022-08-07T03:55:56;11.00;;;7.30;;
59786;SDS011;45672;51.612;5.536;2022-08-07T03:58:23;9.40;;;7.15;;
59786;SDS011;45672;51.612;5.536;2022-08-07T04:00:49;14.60;;;7.30;;
59786;SDS011;45672;51.612;5.536;2022-08-07T04:03:17;8.50;;;6.85;;
59786;SDS011;45672;51.612;5.536;2022-08-07T04:05:43;8.10;;;6.97;;
59786;SDS011;45672;51.612;5.536;2022-08-07T04:08:09;10.18;;;7.47;;
59786;SDS011;45672;51.612;5.536;2022-08-07T04:10:36;8.63;;;7.15;;
59786;SDS011;45672;51.612;5.536;2022-08-07T04:13:02;13.77;;;7.20;;
59786;SDS011;45672;51.612;5.536;2022-08-07T04:15:28;10.35;;;7.13;;
59786;SDS011;45672;51.612;5.536;2022-08-07T04:17:53;10.43;;;7.20;;
59786;SDS011;45672;51.612;5.536;2022-08-07T04:20:19;9.73;;;7.53;;
59786;SDS011;45672;51.612;5.536;2022-08-07T04:22:45;8.75;;;7.25;;
59786;SDS011;45672;51.612;5.536;2022-08-07T04:25:13;8.32;;;7.28;;
59786;SDS011;45672;51.612;5.536;2022-08-07T04:27:39;10.93;;;7.35;;
59786;SDS011;45672;51.612;5.536;2022-08-07T04:30:05;8.73;;;7.82;;
59786;SDS011;45672;51.612;5.536;2022-08-07T04:32:31;11.43;;;7.45;;
59786;SDS011;45672;51.612;5.536;2022-08-07T04:34:58;11.05;;;7.57;;
59786;SDS011;45672;51.612;5.536;2022-08-07T04:37:25;14.30;;;7.80;;
59786;SDS011;45672;51.612;5.536;2022-08-07T04:39:51;7.90;;;7.10;;
59786;SDS011;45672;51.612;5.536;2022-08-07T04:42:16;8.98;;;7.85;;
59786;SDS011;45672;51.612;5.536;2022-08-07T04:44:41;10.38;;;7.70;;
59786;SDS011;45672;51.612;5.536;2022-08-07T04:47:20;11.40;;;8.00;;
59786;SDS011;45672;51.612;5.536;2022-08-07T04:50:13;10.25;;;7.85;;
59786;SDS011;45672;51.612;5.536;2022-08-07T04:52:58;11.82;;;7.55;;
59786;SDS011;45672;51.612;5.536;2022-08-07T04:55:33;8.63;;;7.50;;
59786;SDS011;45672;51.612;5.536;2022-08-07T04:58:16;10.52;;;7.50;;
59786;SDS011;45672;51.612;5.536;2022-08-07T05:06:46;8.35;;;7.47;;
59786;SDS011;45672;51.612;5.536;2022-08-07T05:09:25;7.97;;;7.25;;
59786;SDS011;45672;51.612;5.536;2022-08-07T05:11:56;9.80;;;7.45;;
59786;SDS011;45672;51.612;5.536;2022-08-07T05:14:29;8.77;;;7.85;;
59786;SDS011;45672;51.612;5.536;2022-08-07T05:17:01;9.15;;;7.75;;
59786;SDS011;45672;51.612;5.536;2022-08-07T05:19:30;8.43;;;6.82;;
59786;SDS011;45672;51.612;5.536;2022-08-07T05:22:01;10.43;;;7.80;;
59786;SDS011;45672;51.612;5.536;2022-08-07T05:24:28;14.43;;;7.90;;
59786;SDS011;45672;51.612;5.536;2022-08-07T05:26:55;9.82;;;7.90;;
59786;SDS011;45672;51.612;5.536;2022-08-07T05:29:23;9.45;;;7.97;;
59786;SDS011;45672;51.612;5.536;2022-08-07T05:31:49;12.55;;;7.47;;
59786;SDS011;45672;51.612;5.536;2022-08-07T05:34:16;8.75;;;7.38;;
59786;SDS011;45672;51.612;5.536;2022-08-07T05:36:45;8.77;;;7.88;;
59786;SDS011;45672;51.612;5.536;2022-08-07T05:39:12;9.55;;;7.63;;
59786;SDS011;45672;51.612;5.536;2022-08-07T05:41:39;8.30;;;7.45;;
59786;SDS011;45672;51.612;5.536;2022-08-07T05:44:07;14.50;;;8.55;;
59786;SDS011;45672;51.612;5.536;2022-08-07T05:46:35;14.35;;;7.97;;
59786;SDS011;45672;51.612;5.536;2022-08-07T05:49:02;10.60;;;8.35;;
59786;SDS011;45672;51.612;5.536;2022-08-07T05:51:29;10.68;;;8.57;;
59786;SDS011;45672;51.612;5.536;2022-08-07T05:53:54;12.82;;;8.55;;
59786;SDS011;45672;51.612;5.536;2022-08-07T05:56:19;10.10;;;8.63;;
59786;SDS011;45672;51.612;5.536;2022-08-07T05:58:45;15.02;;;8.52;;
59786;SDS011;45672;51.612;5.536;2022-08-07T06:01:12;8.98;;;8.07;;
59786;SDS011;45672;51.612;5.536;2022-08-07T06:03:40;9.93;;;8.00;;
59786;SDS011;45672;51.612;5.536;2022-08-07T06:06:09;11.38;;;8.52;;
59786;SDS011;45672;51.612;5.536;2022-08-07T06:08:35;9.73;;;8.27;;
59786;SDS011;45672;51.612;5.536;2022-08-07T06:11:01;9.05;;;8.10;;
59786;SDS011;45672;51.612;5.536;2022-08-07T06:13:26;10.57;;;8.70;;
59786;SDS011;45672;51.612;5.536;2022-08-07T06:15:51;11.95;;;8.45;;
59786;SDS011;45672;51.612;5.536;2022-08-07T06:18:18;11.80;;;8.43;;
59786;SDS011;45672;51.612;5.536;2022-08-07T06:20:45;9.85;;;8.85;;
59786;SDS011;45672;51.612;5.536;2022-08-07T06:23:12;11.13;;;8.13;;
59786;SDS011;45672;51.612;5.536;2022-08-07T06:25:38;11.35;;;8.13;;
59786;SDS011;45672;51.612;5.536;2022-08-07T06:28:05;11.43;;;8.45;;
59786;SDS011;45672;51.612;5.536;2022-08-07T06:30:32;11.20;;;8.85;;
59786;SDS011;45672;51.612;5.536;2022-08-07T06:32:59;14.43;;;8.68;;
59786;SDS011;45672;51.612;5.536;2022-08-07T06:35:24;12.00;;;8.05;;
59786;SDS011;45672;51.612;5.536;2022-08-07T06:37:50;15.82;;;8.25;;
59786;SDS011;45672;51.612;5.536;2022-08-07T06:40:15;10.25;;;7.93;;
59786;SDS011;45672;51.612;5.536;2022-08-07T06:42:41;10.75;;;7.63;;
59786;SDS011;45672;51.612;5.536;2022-08-07T06:45:10;12.18;;;7.93;;
59786;SDS011;45672;51.612;5.536;2022-08-07T06:47:38;9.68;;;7.88;;
59786;SDS011;45672;51.612;5.536;2022-08-07T06:50:04;15.52;;;7.63;;
59786;SDS011;45672;51.612;5.536;2022-08-07T06:52:32;8.57;;;7.35;;
59786;SDS011;45672;51.612;5.536;2022-08-07T06:55:00;14.13;;;6.93;;
59786;SDS011;45672;51.612;5.536;2022-08-07T06:57:26;9.05;;;7.00;;
59786;SDS011;45672;51.612;5.536;2022-08-07T06:59:55;7.47;;;6.53;;
59786;SDS011;45672;51.612;5.536;2022-08-07T07:02:23;10.68;;;6.53;;
59786;SDS011;45672;51.612;5.536;2022-08-07T07:04:50;7.30;;;6.20;;
59786;SDS011;45672;51.612;5.536;2022-08-07T07:07:16;7.10;;;6.32;;
59786;SDS011;45672;51.612;5.536;2022-08-07T07:09:45;9.40;;;5.65;;
59786;SDS011;45672;51.612;5.536;2022-08-07T07:14:48;5.43;;;4.93;;
59786;SDS011;45672;51.612;5.536;2022-08-07T07:17:38;5.65;;;5.05;;
59786;SDS011;45672;51.612;5.536;2022-08-07T07:20:13;11.00;;;5.10;;
59786;SDS011;45672;51.612;5.536;2022-08-07T07:22:42;5.78;;;5.25;;
59786;SDS011;45672;51.612;5.536;2022-08-07T07:25:08;5.45;;;5.00;;
59786;SDS011;45672;51.612;5.536;2022-08-07T07:27:38;7.15;;;4.40;;
59786;SDS011;45672;51.612;5.536;2022-08-07T07:30:08;5.85;;;4.28;;
59786;SDS011;45672;51.612;5.536;2022-08-07T07:32:36;4.63;;;4.00;;
59786;SDS011;45672;51.612;5.536;2022-08-07T07:35:04;5.68;;;4.45;;
59786;SDS011;45672;51.612;5.536;2022-08-07T07:37:32;5.97;;;4.50;;
59786;SDS011;45672;51.612;5.536;2022-08-07T07:40:00;7.25;;;4.60;;
59786;SDS011;45672;51.612;5.536;2022-08-07T07:42:28;5.57;;;4.63;;
59786;SDS011;45672;51.612;5.536;2022-08-07T07:44:54;4.43;;;3.97;;
59786;SDS011;45672;51.612;5.536;2022-08-07T07:47:23;5.78;;;3.95;;
59786;SDS011;45672;51.612;5.536;2022-08-07T07:49:50;5.05;;;4.35;;
59786;SDS011;45672;51.612;5.536;2022-08-07T07:52:16;4.40;;;4.00;;
59786;SDS011;45672;51.612;5.536;2022-08-07T07:54:44;6.65;;;4.15;;
59786;SDS011;45672;51.612;5.536;2022-08-07T07:57:11;5.43;;;4.15;;
59786;SDS011;45672;51.612;5.536;2022-08-07T07:59:38;6.10;;;4.53;;
59786;SDS011;45672;51.612;5.536;2022-08-07T08:02:05;4.68;;;4.28;;
59786;SDS011;45672;51.612;5.536;2022-08-07T08:04:31;7.45;;;4.18;;
59786;SDS011;45672;51.612;5.536;2022-08-07T08:07:00;8.77;;;4.00;;
59786;SDS011;45672;51.612;5.536;2022-08-07T08:09:26;4.05;;;3.65;;
59786;SDS011;45672;51.612;5.536;2022-08-07T08:11:52;4.80;;;3.88;;
59786;SDS011;45672;51.612;5.536;2022-08-07T08:14:18;5.80;;;4.25;;
59786;SDS011;45672;51.612;5.536;2022-08-07T08:16:44;3.90;;;3.60;;
59786;SDS011;45672;51.612;5.536;2022-08-07T08:19:12;6.55;;;4.00;;
59786;SDS011;45672;51.612;5.536;2022-08-07T08:21:40;6.53;;;4.05;;
59786;SDS011;45672;51.612;5.536;2022-08-07T08:24:28;7.95;;;4.50;;
59786;SDS011;45672;51.612;5.536;2022-08-07T08:27:13;5.28;;;3.70;;
59786;SDS011;45672;51.612;5.536;2022-08-07T08:29:43;6.97;;;3.45;;
59786;SDS011;45672;51.612;5.536;2022-08-07T08:32:14;11.13;;;3.97;;
59786;SDS011;45672;51.612;5.536;2022-08-07T08:34:43;7.25;;;3.60;;
59786;SDS011;45672;51.612;5.536;2022-08-07T08:37:10;3.72;;;3.42;;
59786;SDS011;45672;51.612;5.536;2022-08-07T08:39:37;3.78;;;3.38;;
59786;SDS011;45672;51.612;5.536;2022-08-07T08:42:11;3.90;;;3.60;;
59786;SDS011;45672;51.612;5.536;2022-08-07T08:47:51;3.15;;;2.90;;
59786;SDS011;45672;51.612;5.536;2022-08-07T08:50:38;5.18;;;3.10;;
59786;SDS011;45672;51.612;5.536;2022-08-07T08:56:05;5.80;;;2.60;;
59786;SDS011;45672;51.612;5.536;2022-08-07T09:03:43;4.10;;;2.30;;
59786;SDS011;45672;51.612;5.536;2022-08-07T09:06:24;2.60;;;2.40;;
59786;SDS011;45672;51.612;5.536;2022-08-07T09:09:02;4.30;;;2.75;;
59786;SDS011;45672;51.612;5.536;2022-08-07T09:11:40;3.65;;;2.13;;
59786;SDS011;45672;51.612;5.536;2022-08-07T09:14:16;3.28;;;2.50;;
59786;SDS011;45672;51.612;5.536;2022-08-07T09:25:12;2.10;;;1.95;;
59786;SDS011;45672;51.612;5.536;2022-08-07T09:28:05;4.68;;;2.42;;
59786;SDS011;45672;51.612;5.536;2022-08-07T09:30:36;2.45;;;2.00;;
59786;SDS011;45672;51.612;5.536;2022-08-07T09:33:32;3.00;;;2.20;;
59786;SDS011;45672;51.612;5.536;2022-08-07T09:36:13;4.95;;;1.95;;
59786;SDS011;45672;51.612;5.536;2022-08-07T09:41:54;2.30;;;2.10;;
59786;SDS011;45672;51.612;5.536;2022-08-07T09:47:29;3.58;;;2.10;;
59786;SDS011;45672;51.612;5.536;2022-08-07T09:50:07;3.05;;;1.60;;
59786;SDS011;45672;51.612;5.536;2022-08-07T09:52:48;3.72;;;1.50;;
59786;SDS011;45672;51.612;5.536;2022-08-07T10:01:20;3.90;;;1.85;;
59786;SDS011;45672;51.612;5.536;2022-08-07T10:04:10;3.92;;;1.80;;
59786;SDS011;45672;51.612;5.536;2022-08-07T10:06:59;3.25;;;1.77;;
59786;SDS011;45672;51.612;5.536;2022-08-07T10:09:42;2.20;;;1.73;;
59786;SDS011;45672;51.612;5.536;2022-08-07T10:15:05;3.80;;;2.03;;
59786;SDS011;45672;51.612;5.536;2022-08-07T10:23:12;2.13;;;1.80;;
59786;SDS011;45672;51.612;5.536;2022-08-07T10:28:56;2.03;;;1.90;;
59786;SDS011;45672;51.612;5.536;2022-08-07T10:37:58;3.10;;;1.55;;
59786;SDS011;45672;51.612;5.536;2022-08-07T10:43:14;3.38;;;1.58;;
59786;SDS011;45672;51.612;5.536;2022-08-07T10:45:48;3.60;;;1.80;;
59786;SDS011;45672;51.612;5.536;2022-08-07T10:51:09;4.05;;;1.80;;
59786;SDS011;45672;51.612;5.536;2022-08-07T10:56:44;1.98;;;1.55;;
59786;SDS011;45672;51.612;5.536;2022-08-07T10:59:24;1.80;;;1.20;;
59786;SDS011;45672;51.612;5.536;2022-08-07T11:05:08;2.47;;;1.77;;
59786;SDS011;45672;51.612;5.536;2022-08-07T11:08:08;4.13;;;2.22;;
59786;SDS011;45672;51.612;5.536;2022-08-07T11:10:58;6.50;;;2.00;;
59786;SDS011;45672;51.612;5.536;2022-08-07T11:13:31;3.10;;;1.90;;
59786;SDS011;45672;51.612;5.536;2022-08-07T11:16:03;2.60;;;2.15;;
59786;SDS011;45672;51.612;5.536;2022-08-07T11:18:45;2.63;;;1.88;;
59786;SDS011;45672;51.612;5.536;2022-08-07T11:23:54;7.47;;;2.00;;
59786;SDS011;45672;51.612;5.536;2022-08-07T11:26:32;2.58;;;2.10;;
59786;SDS011;45672;51.612;5.536;2022-08-07T11:29:06;3.58;;;1.85;;
59786;SDS011;45672;51.612;5.536;2022-08-07T11:31:46;3.50;;;2.13;;
59786;SDS011;45672;51.612;5.536;2022-08-07T11:34:23;2.15;;;1.95;;
59786;SDS011;45672;51.612;5.536;2022-08-07T11:37:04;2.58;;;1.98;;
59786;SDS011;45672;51.612;5.536;2022-08-07T11:48:10;2.22;;;2.03;;
59786;SDS011;45672;51.612;5.536;2022-08-07T11:53:56;3.28;;;2.10;;
59786;SDS011;45672;51.612;5.536;2022-08-07T12:13:39;3.90;;;2.15;;
59786;SDS011;45672;51.612;5.536;2022-08-07T12:16:10;2.90;;;1.80;;
59786;SDS011;45672;51.612;5.536;2022-08-07T12:18:44;3.47;;;1.98;;
59786;SDS011;45672;51.612;5.536;2022-08-07T12:21:36;5.72;;;2.03;;
59786;SDS011;45672;51.612;5.536;2022-08-07T12:27:29;3.70;;;1.90;;
59786;SDS011;45672;51.612;5.536;2022-08-07T12:30:01;1.70;;;1.58;;
59786;SDS011;45672;51.612;5.536;2022-08-07T12:32:33;3.13;;;1.80;;
59786;SDS011;45672;51.612;5.536;2022-08-07T12:35:05;2.90;;;1.60;;
59786;SDS011;45672;51.612;5.536;2022-08-07T12:37:33;1.58;;;1.48;;
59786;SDS011;45672;51.612;5.536;2022-08-07T12:40:00;2.00;;;1.80;;
59786;SDS011;45672;51.612;5.536;2022-08-07T12:42:29;4.15;;;1.92;;
59786;SDS011;45672;51.612;5.536;2022-08-07T12:45:01;3.13;;;1.60;;
59786;SDS011;45672;51.612;5.536;2022-08-07T12:47:46;2.38;;;1.60;;
59786;SDS011;45672;51.612;5.536;2022-08-07T12:53:03;2.10;;;1.88;;
59786;SDS011;45672;51.612;5.536;2022-08-07T12:55:57;2.97;;;1.92;;
59786;SDS011;45672;51.612;5.536;2022-08-07T12:58:22;1.95;;;1.75;;
59786;SDS011;45672;51.612;5.536;2022-08-07T13:01:01;2.63;;;1.80;;
59786;SDS011;45672;51.612;5.536;2022-08-07T13:09:29;2.30;;;2.00;;
59786;SDS011;45672;51.612;5.536;2022-08-07T13:12:00;2.00;;;1.70;;
59786;SDS011;45672;51.612;5.536;2022-08-07T13:17:48;1.70;;;1.60;;
59786;SDS011;45672;51.612;5.536;2022-08-07T13:20:27;4.20;;;1.48;;
59786;SDS011;45672;51.612;5.536;2022-08-07T13:22:59;1.73;;;1.63;;
59786;SDS011;45672;51.612;5.536;2022-08-07T13:25:33;2.38;;;1.98;;
59786;SDS011;45672;51.612;5.536;2022-08-07T13:28:11;2.45;;;2.10;;
59786;SDS011;45672;51.612;5.536;2022-08-07T13:30:42;1.90;;;1.80;;
59786;SDS011;45672;51.612;5.536;2022-08-07T13:35:49;2.88;;;1.77;;
59786;SDS011;45672;51.612;5.536;2022-08-07T13:41:19;4.32;;;2.20;;
59786;SDS011;45672;51.612;5.536;2022-08-07T13:43:47;2.33;;;2.05;;
59786;SDS011;45672;51.612;5.536;2022-08-07T13:46:15;3.75;;;1.90;;
59786;SDS011;45672;51.612;5.536;2022-08-07T13:48:45;2.55;;;1.70;;
59786;SDS011;45672;51.612;5.536;2022-08-07T13:51:13;4.43;;;1.65;;
59786;SDS011;45672;51.612;5.536;2022-08-07T13:53:41;2.97;;;1.60;;
59786;SDS011;45672;51.612;5.536;2022-08-07T13:56:10;2.05;;;1.80;;
59786;SDS011;45672;51.612;5.536;2022-08-07T13:58:40;2.38;;;1.67;;
59786;SDS011;45672;51.612;5.536;2022-08-07T14:01:27;3.72;;;1.90;;
59786;SDS011;45672;51.612;5.536;2022-08-07T14:03:56;3.87;;;1.70;;
59786;SDS011;45672;51.612;5.536;2022-08-07T14:06:29;2.40;;;1.90;;
59786;SDS011;45672;51.612;5.536;2022-08-07T14:08:57;2.42;;;1.60;;
59786;SDS011;45672;51.612;5.536;2022-08-07T14:11:23;2.08;;;1.90;;
59786;SDS011;45672;51.612;5.536;2022-08-07T14:13:53;3.28;;;1.70;;
59786;SDS011;45672;51.612;5.536;2022-08-07T14:16:29;2.05;;;1.70;;
59786;SDS011;45672;51.612;5.536;2022-08-07T14:18:58;1.90;;;1.60;;
59786;SDS011;45672;51.612;5.536;2022-08-07T14:21:27;5.70;;;1.63;;
59786;SDS011;45672;51.612;5.536;2022-08-07T14:24:00;3.80;;;1.80;;
59786;SDS011;45672;51.612;5.536;2022-08-07T14:26:36;1.80;;;1.70;;
59786;SDS011;45672;51.612;5.536;2022-08-07T14:29:06;4.65;;;1.50;;
59786;SDS011;45672;51.612;5.536;2022-08-07T14:31:35;2.45;;;1.70;;
59786;SDS011;45672;51.612;5.536;2022-08-07T14:34:02;1.98;;;1.70;;
59786;SDS011;45672;51.612;5.536;2022-08-07T14:36:29;1.65;;;1.55;;
59786;SDS011;45672;51.612;5.536;2022-08-07T14:38:58;3.42;;;1.83;;
59786;SDS011;45672;51.612;5.536;2022-08-07T14:41:27;1.80;;;1.70;;
59786;SDS011;45672;51.612;5.536;2022-08-07T14:43:56;2.72;;;1.73;;
59786;SDS011;45672;51.612;5.536;2022-08-07T14:46:24;2.28;;;1.80;;
59786;SDS011;45672;51.612;5.536;2022-08-07T14:48:52;3.72;;;1.67;;
59786;SDS011;45672;51.612;5.536;2022-08-07T14:51:22;4.82;;;1.70;;
59786;SDS011;45672;51.612;5.536;2022-08-07T14:53:52;2.75;;;1.70;;
59786;SDS011;45672;51.612;5.536;2022-08-07T14:56:19;1.77;;;1.50;;
59786;SDS011;45672;51.612;5.536;2022-08-07T14:58:55;2.30;;;1.50;;
59786;SDS011;45672;51.612;5.536;2022-08-07T15:01:26;3.60;;;1.33;;
59786;SDS011;45672;51.612;5.536;2022-08-07T15:03:56;1.98;;;1.63;;
59786;SDS011;45672;51.612;5.536;2022-08-07T15:06:24;4.20;;;1.60;;
59786;SDS011;45672;51.612;5.536;2022-08-07T15:08:51;2.75;;;1.50;;
59786;SDS011;45672;51.612;5.536;2022-08-07T15:11:29;2.05;;;1.60;;
59786;SDS011;45672;51.612;5.536;2022-08-07T15:14:02;1.48;;;1.38;;
59786;SDS011;45672;51.612;5.536;2022-08-07T15:16:40;1.67;;;1.55;;
59786;SDS011;45672;51.612;5.536;2022-08-07T15:19:12;2.22;;;1.60;;
59786;SDS011;45672;51.612;5.536;2022-08-07T15:21:41;4.85;;;1.67;;
59786;SDS011;45672;51.612;5.536;2022-08-07T15:24:19;2.53;;;1.70;;
59786;SDS011;45672;51.612;5.536;2022-08-07T15:27:09;1.73;;;1.63;;
59786;SDS011;45672;51.612;5.536;2022-08-07T15:29:40;1.58;;;1.48;;
59786;SDS011;45672;51.612;5.536;2022-08-07T15:32:06;1.80;;;1.70;;
59786;SDS011;45672;51.612;5.536;2022-08-07T15:34:43;4.50;;;1.55;;
59786;SDS011;45672;51.612;5.536;2022-08-07T15:37:13;2.28;;;1.60;;
59786;SDS011;45672;51.612;5.536;2022-08-07T15:39:41;2.55;;;1.75;;
59786;SDS011;45672;51.612;5.536;2022-08-07T15:45:05;1.50;;;1.40;;
59786;SDS011;45672;51.612;5.536;2022-08-07T15:47:33;1.50;;;1.42;;
59786;SDS011;45672;51.612;5.536;2022-08-07T15:50:03;3.30;;;1.60;;
59786;SDS011;45672;51.612;5.536;2022-08-07T15:52:31;4.72;;;1.58;;
59786;SDS011;45672;51.612;5.536;2022-08-07T15:54:59;6.18;;;1.70;;
59786;SDS011;45672;51.612;5.536;2022-08-07T15:57:30;1.83;;;1.67;;
59786;SDS011;45672;51.612;5.536;2022-08-07T15:59:57;5.80;;;1.65;;
59786;SDS011;45672;51.612;5.536;2022-08-07T16:02:25;1.63;;;1.38;;
59786;SDS011;45672;51.612;5.536;2022-08-07T16:05:02;3.33;;;1.60;;
59786;SDS011;45672;51.612;5.536;2022-08-07T16:07:40;1.67;;;1.58;;
59786;SDS011;45672;51.612;5.536;2022-08-07T16:10:14;1.95;;;1.77;;
59786;SDS011;45672;51.612;5.536;2022-08-07T16:21:07;2.22;;;1.83;;
59786;SDS011;45672;51.612;5.536;2022-08-07T16:26:37;2.30;;;2.10;;
59786;SDS011;45672;51.612;5.536;2022-08-07T16:40:26;1.90;;;1.70;;
59786;SDS011;45672;51.612;5.536;2022-08-07T16:43:27;3.92;;;1.70;;
59786;SDS011;45672;51.612;5.536;2022-08-07T16:52:07;3.45;;;2.33;;
59786;SDS011;45672;51.612;5.536;2022-08-07T16:57:22;2.10;;;1.95;;
59786;SDS011;45672;51.612;5.536;2022-08-07T17:00:11;2.55;;;2.15;;
59786;SDS011;45672;51.612;5.536;2022-08-07T17:02:55;2.75;;;2.00;;
59786;SDS011;45672;51.612;5.536;2022-08-07T17:13:02;3.30;;;2.33;;
59786;SDS011;45672;51.612;5.536;2022-08-07T17:18:30;6.07;;;2.58;;
59786;SDS011;45672;51.612;5.536;2022-08-07T17:21:02;3.63;;;2.38;;
59786;SDS011;45672;51.612;5.536;2022-08-07T17:29:01;2.65;;;2.45;;
59786;SDS011;45672;51.612;5.536;2022-08-07T17:31:38;4.10;;;2.67;;
59786;SDS011;45672;51.612;5.536;2022-08-07T17:34:11;2.60;;;2.40;;
59786;SDS011;45672;51.612;5.536;2022-08-07T17:36:42;5.55;;;2.60;;
59786;SDS011;45672;51.612;5.536;2022-08-07T17:39:18;2.30;;;2.20;;
59786;SDS011;45672;51.612;5.536;2022-08-07T17:42:03;4.38;;;2.75;;
59786;SDS011;45672;51.612;5.536;2022-08-07T17:47:09;3.88;;;2.60;;
59786;SDS011;45672;51.612;5.536;2022-08-07T17:50:43;5.90;;;2.35;;
59786;SDS011;45672;51.612;5.536;2022-08-07T17:53:08;3.13;;;2.50;;
59786;SDS011;45672;51.612;5.536;2022-08-07T17:55:39;2.85;;;2.47;;
59786;SDS011;45672;51.612;5.536;2022-08-07T18:09:33;3.58;;;1.75;;
59786;SDS011;45672;51.612;5.536;2022-08-07T18:12:08;3.47;;;1.80;;
59786;SDS011;45672;51.612;5.536;2022-08-07T18:14:50;4.88;;;1.98;;